sensor_id;sensor_type;location;lat;lon;timestamp;P1;durP1;ratioP1;P2;durP2;ratioP2
23676;SDS011;31493;49.058;12.190;2024-03-29T00:01:18;1.98;;;1.38;;
23676;SDS011;31493;49.058;12.190;2024-03-29T00:03:44;2.53;;;1.30;;
23676;SDS011;31493;49.058;12.190;2024-03-29T00:06:10;2.95;;;1.45;;
23676;SDS011;31493;49.058;12.190;2024-03-29T00:08:36;2.42;;;1.52;;
23676;SDS011;31493;49.058;12.190;2024-03-29T00:11:02;2.83;;;1.10;;
23676;SDS011;31493;49.058;12.190;2024-03-29T00:13:28;2.72;;;1.65;;
23676;SDS011;31493;49.058;12.190;2024-03-29T00:15:54;3.25;;;1.98;;
23676;SDS011;31493;49.058;12.190;2024-03-29T00:18:20;3.05;;;1.73;;
23676;SDS011;31493;49.058;12.190;2024-03-29T00:20:47;2.47;;;1.50;;
23676;SDS011;31493;49.058;12.190;2024-03-29T00:23:13;2.55;;;1.65;;
23676;SDS011;31493;49.058;12.190;2024-03-29T00:25:39;3.30;;;1.73;;
23676;SDS011;31493;49.058;12.190;2024-03-29T00:28:05;2.92;;;1.60;;
23676;SDS011;31493;49.058;12.190;2024-03-29T00:30:31;2.40;;;1.52;;
23676;SDS011;31493;49.058;12.190;2024-03-29T00:32:57;1.73;;;1.33;;
23676;SDS011;31493;49.058;12.190;2024-03-29T00:35:22;3.15;;;1.73;;
23676;SDS011;31493;49.058;12.190;2024-03-29T00:37:49;4.32;;;1.40;;
23676;SDS011;31493;49.058;12.190;2024-03-29T00:40:15;1.95;;;1.20;;
23676;SDS011;31493;49.058;12.190;2024-03-29T00:42:42;3.85;;;1.65;;
23676;SDS011;31493;49.058;12.190;2024-03-29T00:45:08;4.53;;;1.67;;
23676;SDS011;31493;49.058;12.190;2024-03-29T00:47:34;3.97;;;1.90;;
23676;SDS011;31493;49.058;12.190;2024-03-29T00:50:00;2.25;;;1.23;;
23676;SDS011;31493;49.058;12.190;2024-03-29T00:52:26;3.20;;;1.50;;
23676;SDS011;31493;49.058;12.190;2024-03-29T00:54:51;3.75;;;1.67;;
23676;SDS011;31493;49.058;12.190;2024-03-29T00:57:18;3.58;;;1.63;;
23676;SDS011;31493;49.058;12.190;2024-03-29T00:59:44;2.33;;;1.50;;
23676;SDS011;31493;49.058;12.190;2024-03-29T01:02:12;2.30;;;1.50;;
23676;SDS011;31493;49.058;12.190;2024-03-29T01:04:38;2.13;;;1.58;;
23676;SDS011;31493;49.058;12.190;2024-03-29T01:07:05;3.45;;;1.42;;
23676;SDS011;31493;49.058;12.190;2024-03-29T01:09:32;2.22;;;1.40;;
23676;SDS011;31493;49.058;12.190;2024-03-29T01:11:57;4.53;;;1.67;;
23676;SDS011;31493;49.058;12.190;2024-03-29T01:14:23;3.10;;;1.80;;
23676;SDS011;31493;49.058;12.190;2024-03-29T01:16:49;2.72;;;1.70;;
23676;SDS011;31493;49.058;12.190;2024-03-29T01:19:15;2.88;;;1.50;;
23676;SDS011;31493;49.058;12.190;2024-03-29T01:21:41;3.90;;;1.60;;
23676;SDS011;31493;49.058;12.190;2024-03-29T01:24:07;5.40;;;1.90;;
23676;SDS011;31493;49.058;12.190;2024-03-29T01:26:33;4.65;;;1.58;;
23676;SDS011;31493;49.058;12.190;2024-03-29T01:28:59;2.58;;;1.70;;
23676;SDS011;31493;49.058;12.190;2024-03-29T01:31:25;2.80;;;1.52;;
23676;SDS011;31493;49.058;12.190;2024-03-29T01:33:51;3.75;;;1.63;;
23676;SDS011;31493;49.058;12.190;2024-03-29T01:36:18;2.35;;;1.63;;
23676;SDS011;31493;49.058;12.190;2024-03-29T01:38:44;2.38;;;1.58;;
23676;SDS011;31493;49.058;12.190;2024-03-29T01:41:12;1.77;;;1.30;;
23676;SDS011;31493;49.058;12.190;2024-03-29T01:43:38;4.75;;;1.92;;
23676;SDS011;31493;49.058;12.190;2024-03-29T01:46:05;1.88;;;1.27;;
23676;SDS011;31493;49.058;12.190;2024-03-29T01:48:34;2.25;;;1.33;;
23676;SDS011;31493;49.058;12.190;2024-03-29T01:51:00;2.53;;;1.30;;
23676;SDS011;31493;49.058;12.190;2024-03-29T01:53:26;2.05;;;1.35;;
23676;SDS011;31493;49.058;12.190;2024-03-29T01:55:53;2.45;;;1.50;;
23676;SDS011;31493;49.058;12.190;2024-03-29T01:58:20;2.03;;;1.20;;
23676;SDS011;31493;49.058;12.190;2024-03-29T02:00:53;3.10;;;1.45;;
23676;SDS011;31493;49.058;12.190;2024-03-29T02:03:22;1.95;;;1.20;;
23676;SDS011;31493;49.058;12.190;2024-03-29T02:05:49;2.33;;;1.20;;
23676;SDS011;31493;49.058;12.190;2024-03-29T02:08:15;1.98;;;1.27;;
23676;SDS011;31493;49.058;12.190;2024-03-29T02:10:43;2.92;;;1.30;;
23676;SDS011;31493;49.058;12.190;2024-03-29T02:15:37;3.08;;;1.40;;
23676;SDS011;31493;49.058;12.190;2024-03-29T02:18:05;2.45;;;1.30;;
23676;SDS011;31493;49.058;12.190;2024-03-29T02:20:31;3.25;;;1.20;;
23676;SDS011;31493;49.058;12.190;2024-03-29T02:23:14;1.70;;;1.27;;
23676;SDS011;31493;49.058;12.190;2024-03-29T02:25:43;2.67;;;1.30;;
23676;SDS011;31493;49.058;12.190;2024-03-29T02:28:09;3.92;;;1.10;;
23676;SDS011;31493;49.058;12.190;2024-03-29T02:30:35;2.45;;;1.00;;
23676;SDS011;31493;49.058;12.190;2024-03-29T02:33:01;1.92;;;1.20;;
23676;SDS011;31493;49.058;12.190;2024-03-29T02:35:28;3.70;;;1.10;;
23676;SDS011;31493;49.058;12.190;2024-03-29T02:37:54;1.73;;;1.00;;
23676;SDS011;31493;49.058;12.190;2024-03-29T02:40:20;2.00;;;1.15;;
23676;SDS011;31493;49.058;12.190;2024-03-29T02:42:47;1.88;;;1.05;;
23676;SDS011;31493;49.058;12.190;2024-03-29T02:45:14;1.88;;;1.00;;
23676;SDS011;31493;49.058;12.190;2024-03-29T02:47:41;2.60;;;1.20;;
23676;SDS011;31493;49.058;12.190;2024-03-29T02:50:08;2.13;;;0.90;;
23676;SDS011;31493;49.058;12.190;2024-03-29T02:52:35;2.05;;;0.98;;
23676;SDS011;31493;49.058;12.190;2024-03-29T02:55:00;1.40;;;1.10;;
23676;SDS011;31493;49.058;12.190;2024-03-29T02:57:26;1.38;;;1.00;;
23676;SDS011;31493;49.058;12.190;2024-03-29T02:59:52;2.92;;;1.10;;
23676;SDS011;31493;49.058;12.190;2024-03-29T03:02:18;1.75;;;0.90;;
23676;SDS011;31493;49.058;12.190;2024-03-29T03:04:44;2.17;;;1.00;;
23676;SDS011;31493;49.058;12.190;2024-03-29T03:07:10;1.67;;;0.98;;
23676;SDS011;31493;49.058;12.190;2024-03-29T03:09:55;3.20;;;0.98;;
23676;SDS011;31493;49.058;12.190;2024-03-29T03:12:39;1.48;;;0.80;;
23676;SDS011;31493;49.058;12.190;2024-03-29T03:15:05;3.67;;;0.90;;
23676;SDS011;31493;49.058;12.190;2024-03-29T03:17:31;1.88;;;0.82;;
23676;SDS011;31493;49.058;12.190;2024-03-29T03:19:57;1.88;;;1.05;;
23676;SDS011;31493;49.058;12.190;2024-03-29T03:22:24;1.45;;;1.13;;
23676;SDS011;31493;49.058;12.190;2024-03-29T03:24:50;0.98;;;0.80;;
23676;SDS011;31493;49.058;12.190;2024-03-29T03:27:16;2.92;;;0.90;;
23676;SDS011;31493;49.058;12.190;2024-03-29T03:29:42;2.42;;;1.00;;
23676;SDS011;31493;49.058;12.190;2024-03-29T03:32:07;0.88;;;0.70;;
23676;SDS011;31493;49.058;12.190;2024-03-29T03:34:33;1.15;;;0.80;;
23676;SDS011;31493;49.058;12.190;2024-03-29T03:36:59;3.25;;;1.05;;
23676;SDS011;31493;49.058;12.190;2024-03-29T03:39:25;1.20;;;0.95;;
23676;SDS011;31493;49.058;12.190;2024-03-29T03:41:51;2.78;;;0.88;;
23676;SDS011;31493;49.058;12.190;2024-03-29T03:44:17;2.65;;;0.85;;
23676;SDS011;31493;49.058;12.190;2024-03-29T03:46:43;1.70;;;0.90;;
23676;SDS011;31493;49.058;12.190;2024-03-29T03:49:09;1.40;;;0.90;;
23676;SDS011;31493;49.058;12.190;2024-03-29T03:51:35;1.85;;;0.70;;
23676;SDS011;31493;49.058;12.190;2024-03-29T03:54:01;0.98;;;0.80;;
23676;SDS011;31493;49.058;12.190;2024-03-29T03:56:27;1.65;;;0.93;;
23676;SDS011;31493;49.058;12.190;2024-03-29T03:58:52;2.05;;;1.00;;
23676;SDS011;31493;49.058;12.190;2024-03-29T04:01:18;1.65;;;0.90;;
23676;SDS011;31493;49.058;12.190;2024-03-29T04:03:44;1.42;;;0.82;;
23676;SDS011;31493;49.058;12.190;2024-03-29T04:06:10;1.50;;;0.80;;
23676;SDS011;31493;49.058;12.190;2024-03-29T04:08:36;1.10;;;0.90;;
23676;SDS011;31493;49.058;12.190;2024-03-29T04:11:02;1.88;;;1.13;;
23676;SDS011;31493;49.058;12.190;2024-03-29T04:13:29;1.63;;;0.77;;
23676;SDS011;31493;49.058;12.190;2024-03-29T04:16:04;1.27;;;0.95;;
23676;SDS011;31493;49.058;12.190;2024-03-29T04:18:31;2.33;;;0.90;;
23676;SDS011;31493;49.058;12.190;2024-03-29T04:21:00;1.00;;;0.85;;
23676;SDS011;31493;49.058;12.190;2024-03-29T04:23:27;1.42;;;0.82;;
23676;SDS011;31493;49.058;12.190;2024-03-29T04:25:57;1.85;;;0.90;;
23676;SDS011;31493;49.058;12.190;2024-03-29T04:28:24;1.08;;;0.90;;
23676;SDS011;31493;49.058;12.190;2024-03-29T04:30:54;2.03;;;1.02;;
23676;SDS011;31493;49.058;12.190;2024-03-29T04:33:21;1.10;;;0.85;;
23676;SDS011;31493;49.058;12.190;2024-03-29T04:35:54;2.15;;;1.10;;
23676;SDS011;31493;49.058;12.190;2024-03-29T04:38:22;1.65;;;1.10;;
23676;SDS011;31493;49.058;12.190;2024-03-29T04:40:48;1.55;;;0.93;;
23676;SDS011;31493;49.058;12.190;2024-03-29T04:43:16;2.13;;;1.02;;
23676;SDS011;31493;49.058;12.190;2024-03-29T04:45:43;1.50;;;1.10;;
23676;SDS011;31493;49.058;12.190;2024-03-29T04:48:09;3.65;;;1.00;;
23676;SDS011;31493;49.058;12.190;2024-03-29T04:50:35;2.33;;;1.20;;
23676;SDS011;31493;49.058;12.190;2024-03-29T04:53:01;0.85;;;0.70;;
23676;SDS011;31493;49.058;12.190;2024-03-29T04:55:27;2.28;;;0.80;;
23676;SDS011;31493;49.058;12.190;2024-03-29T04:57:53;2.30;;;1.10;;
23676;SDS011;31493;49.058;12.190;2024-03-29T05:00:19;2.22;;;1.10;;
23676;SDS011;31493;49.058;12.190;2024-03-29T05:02:45;2.03;;;1.13;;
23676;SDS011;31493;49.058;12.190;2024-03-29T05:05:10;2.33;;;1.50;;
23676;SDS011;31493;49.058;12.190;2024-03-29T05:07:36;1.10;;;1.00;;
23676;SDS011;31493;49.058;12.190;2024-03-29T05:10:02;2.55;;;1.25;;
23676;SDS011;31493;49.058;12.190;2024-03-29T05:12:32;2.38;;;1.30;;
23676;SDS011;31493;49.058;12.190;2024-03-29T05:14:58;3.83;;;1.08;;
23676;SDS011;31493;49.058;12.190;2024-03-29T05:17:24;1.98;;;1.38;;
23676;SDS011;31493;49.058;12.190;2024-03-29T05:19:52;1.17;;;1.08;;
23676;SDS011;31493;49.058;12.190;2024-03-29T05:22:19;1.92;;;1.13;;
23676;SDS011;31493;49.058;12.190;2024-03-29T05:24:45;4.05;;;1.38;;
23676;SDS011;31493;49.058;12.190;2024-03-29T05:27:11;1.90;;;1.38;;
23676;SDS011;31493;49.058;12.190;2024-03-29T05:29:38;1.58;;;1.10;;
23676;SDS011;31493;49.058;12.190;2024-03-29T05:32:04;4.45;;;1.63;;
23676;SDS011;31493;49.058;12.190;2024-03-29T05:34:30;3.25;;;1.60;;
23676;SDS011;31493;49.058;12.190;2024-03-29T05:36:57;2.15;;;1.30;;
23676;SDS011;31493;49.058;12.190;2024-03-29T05:39:23;2.15;;;1.60;;
23676;SDS011;31493;49.058;12.190;2024-03-29T05:41:48;3.65;;;1.50;;
23676;SDS011;31493;49.058;12.190;2024-03-29T05:44:14;1.77;;;1.40;;
23676;SDS011;31493;49.058;12.190;2024-03-29T05:46:40;2.47;;;1.50;;
23676;SDS011;31493;49.058;12.190;2024-03-29T05:49:06;2.67;;;1.42;;
23676;SDS011;31493;49.058;12.190;2024-03-29T05:51:32;2.15;;;1.60;;
23676;SDS011;31493;49.058;12.190;2024-03-29T05:56:29;2.80;;;1.63;;
23676;SDS011;31493;49.058;12.190;2024-03-29T05:58:55;1.58;;;1.33;;
23676;SDS011;31493;49.058;12.190;2024-03-29T06:01:21;3.28;;;1.83;;
23676;SDS011;31493;49.058;12.190;2024-03-29T06:03:51;3.10;;;1.95;;
23676;SDS011;31493;49.058;12.190;2024-03-29T06:06:18;1.63;;;1.40;;
23676;SDS011;31493;49.058;12.190;2024-03-29T06:08:47;3.60;;;1.80;;
23676;SDS011;31493;49.058;12.190;2024-03-29T06:11:13;2.53;;;1.67;;
23676;SDS011;31493;49.058;12.190;2024-03-29T06:13:39;3.03;;;1.83;;
23676;SDS011;31493;49.058;12.190;2024-03-29T06:16:20;2.67;;;1.80;;
23676;SDS011;31493;49.058;12.190;2024-03-29T06:19:06;2.13;;;1.67;;
23676;SDS011;31493;49.058;12.190;2024-03-29T06:21:32;4.47;;;1.90;;
23676;SDS011;31493;49.058;12.190;2024-03-29T06:24:05;2.40;;;1.83;;
23676;SDS011;31493;49.058;12.190;2024-03-29T06:26:31;3.45;;;2.20;;
23676;SDS011;31493;49.058;12.190;2024-03-29T06:28:57;3.08;;;1.70;;
23676;SDS011;31493;49.058;12.190;2024-03-29T06:31:23;3.80;;;1.92;;
23676;SDS011;31493;49.058;12.190;2024-03-29T06:33:49;3.65;;;2.20;;
23676;SDS011;31493;49.058;12.190;2024-03-29T06:36:15;4.30;;;2.88;;
23676;SDS011;31493;49.058;12.190;2024-03-29T06:38:41;2.97;;;2.10;;
23676;SDS011;31493;49.058;12.190;2024-03-29T06:41:07;3.38;;;2.03;;
23676;SDS011;31493;49.058;12.190;2024-03-29T06:43:33;2.45;;;1.50;;
23676;SDS011;31493;49.058;12.190;2024-03-29T06:45:58;2.45;;;1.67;;
23676;SDS011;31493;49.058;12.190;2024-03-29T06:48:25;3.40;;;1.90;;
23676;SDS011;31493;49.058;12.190;2024-03-29T06:50:51;2.30;;;1.48;;
23676;SDS011;31493;49.058;12.190;2024-03-29T06:53:16;4.97;;;1.83;;
23676;SDS011;31493;49.058;12.190;2024-03-29T06:55:42;2.75;;;1.80;;
23676;SDS011;31493;49.058;12.190;2024-03-29T06:58:08;3.20;;;1.80;;
23676;SDS011;31493;49.058;12.190;2024-03-29T07:00:35;2.88;;;1.70;;
23676;SDS011;31493;49.058;12.190;2024-03-29T07:03:01;3.70;;;1.63;;
23676;SDS011;31493;49.058;12.190;2024-03-29T07:05:27;2.70;;;1.73;;
23676;SDS011;31493;49.058;12.190;2024-03-29T07:07:53;2.53;;;1.15;;
23676;SDS011;31493;49.058;12.190;2024-03-29T07:10:19;3.00;;;1.58;;
23676;SDS011;31493;49.058;12.190;2024-03-29T07:12:45;2.70;;;1.70;;
23676;SDS011;31493;49.058;12.190;2024-03-29T07:15:11;2.05;;;1.50;;
23676;SDS011;31493;49.058;12.190;2024-03-29T07:17:37;3.75;;;1.42;;
23676;SDS011;31493;49.058;12.190;2024-03-29T07:20:03;3.45;;;1.90;;
23676;SDS011;31493;49.058;12.190;2024-03-29T07:22:30;3.53;;;1.95;;
23676;SDS011;31493;49.058;12.190;2024-03-29T07:24:56;2.70;;;1.60;;
23676;SDS011;31493;49.058;12.190;2024-03-29T07:27:22;2.40;;;1.45;;
23676;SDS011;31493;49.058;12.190;2024-03-29T07:29:48;3.03;;;1.60;;
23676;SDS011;31493;49.058;12.190;2024-03-29T07:32:14;2.50;;;1.60;;
23676;SDS011;31493;49.058;12.190;2024-03-29T07:34:41;4.95;;;1.50;;
23676;SDS011;31493;49.058;12.190;2024-03-29T07:37:09;2.88;;;1.80;;
23676;SDS011;31493;49.058;12.190;2024-03-29T07:39:41;2.67;;;1.50;;
23676;SDS011;31493;49.058;12.190;2024-03-29T07:42:07;2.03;;;1.40;;
23676;SDS011;31493;49.058;12.190;2024-03-29T07:44:33;2.35;;;1.67;;
23676;SDS011;31493;49.058;12.190;2024-03-29T07:46:59;2.78;;;1.67;;
23676;SDS011;31493;49.058;12.190;2024-03-29T07:49:25;2.28;;;1.63;;
23676;SDS011;31493;49.058;12.190;2024-03-29T07:51:51;3.10;;;1.50;;
23676;SDS011;31493;49.058;12.190;2024-03-29T07:54:17;2.30;;;1.33;;
23676;SDS011;31493;49.058;12.190;2024-03-29T07:56:43;2.30;;;1.40;;
23676;SDS011;31493;49.058;12.190;2024-03-29T07:59:09;1.85;;;1.20;;
23676;SDS011;31493;49.058;12.190;2024-03-29T08:01:34;2.97;;;1.40;;
23676;SDS011;31493;49.058;12.190;2024-03-29T08:04:00;2.08;;;1.17;;
23676;SDS011;31493;49.058;12.190;2024-03-29T08:06:26;1.98;;;1.38;;
23676;SDS011;31493;49.058;12.190;2024-03-29T08:08:52;2.13;;;1.42;;
23676;SDS011;31493;49.058;12.190;2024-03-29T08:11:18;2.28;;;1.30;;
23676;SDS011;31493;49.058;12.190;2024-03-29T08:13:44;2.15;;;1.30;;
23676;SDS011;31493;49.058;12.190;2024-03-29T08:16:10;2.55;;;1.35;;
23676;SDS011;31493;49.058;12.190;2024-03-29T08:18:36;3.72;;;1.60;;
23676;SDS011;31493;49.058;12.190;2024-03-29T08:21:02;2.45;;;1.52;;
23676;SDS011;31493;49.058;12.190;2024-03-29T08:23:28;2.75;;;1.42;;
23676;SDS011;31493;49.058;12.190;2024-03-29T08:25:54;2.42;;;1.48;;
23676;SDS011;31493;49.058;12.190;2024-03-29T08:28:22;7.53;;;1.60;;
23676;SDS011;31493;49.058;12.190;2024-03-29T08:31:01;2.95;;;1.55;;
23676;SDS011;31493;49.058;12.190;2024-03-29T08:33:31;2.63;;;1.27;;
23676;SDS011;31493;49.058;12.190;2024-03-29T08:35:58;2.13;;;1.40;;
23676;SDS011;31493;49.058;12.190;2024-03-29T08:38:24;3.67;;;1.40;;
23676;SDS011;31493;49.058;12.190;2024-03-29T08:40:51;2.97;;;1.52;;
23676;SDS011;31493;49.058;12.190;2024-03-29T08:43:16;2.53;;;1.30;;
23676;SDS011;31493;49.058;12.190;2024-03-29T08:48:11;2.20;;;1.33;;
23676;SDS011;31493;49.058;12.190;2024-03-29T08:50:37;4.30;;;1.30;;
23676;SDS011;31493;49.058;12.190;2024-03-29T08:53:03;1.55;;;1.15;;
23676;SDS011;31493;49.058;12.190;2024-03-29T08:55:30;2.72;;;1.20;;
23676;SDS011;31493;49.058;12.190;2024-03-29T08:58:00;2.25;;;1.20;;
23676;SDS011;31493;49.058;12.190;2024-03-29T09:00:28;4.55;;;1.35;;
23676;SDS011;31493;49.058;12.190;2024-03-29T09:05:22;4.00;;;1.20;;
23676;SDS011;31493;49.058;12.190;2024-03-29T09:07:49;3.17;;;1.30;;
23676;SDS011;31493;49.058;12.190;2024-03-29T09:10:15;1.80;;;1.10;;
23676;SDS011;31493;49.058;12.190;2024-03-29T09:12:42;6.68;;;1.60;;
23676;SDS011;31493;49.058;12.190;2024-03-29T09:15:08;3.22;;;1.50;;
23676;SDS011;31493;49.058;12.190;2024-03-29T09:17:39;2.25;;;1.42;;
23676;SDS011;31493;49.058;12.190;2024-03-29T09:20:06;3.00;;;1.55;;
23676;SDS011;31493;49.058;12.190;2024-03-29T09:22:33;2.58;;;1.42;;
23676;SDS011;31493;49.058;12.190;2024-03-29T09:24:59;2.72;;;1.60;;
23676;SDS011;31493;49.058;12.190;2024-03-29T09:27:26;3.95;;;1.25;;
23676;SDS011;31493;49.058;12.190;2024-03-29T09:29:54;2.33;;;1.60;;
23676;SDS011;31493;49.058;12.190;2024-03-29T09:32:20;2.28;;;1.10;;
23676;SDS011;31493;49.058;12.190;2024-03-29T09:34:47;1.77;;;1.10;;
23676;SDS011;31493;49.058;12.190;2024-03-29T09:37:13;2.35;;;1.20;;
23676;SDS011;31493;49.058;12.190;2024-03-29T09:39:39;3.00;;;1.25;;
23676;SDS011;31493;49.058;12.190;2024-03-29T09:42:05;1.88;;;1.08;;
23676;SDS011;31493;49.058;12.190;2024-03-29T09:44:33;1.52;;;1.20;;
23676;SDS011;31493;49.058;12.190;2024-03-29T09:49:31;5.57;;;1.30;;
23676;SDS011;31493;49.058;12.190;2024-03-29T09:51:58;1.85;;;1.15;;
23676;SDS011;31493;49.058;12.190;2024-03-29T09:54:28;2.05;;;1.10;;
23676;SDS011;31493;49.058;12.190;2024-03-29T09:56:55;1.95;;;1.20;;
23676;SDS011;31493;49.058;12.190;2024-03-29T09:59:22;1.77;;;1.33;;
23676;SDS011;31493;49.058;12.190;2024-03-29T10:01:50;1.95;;;1.20;;
23676;SDS011;31493;49.058;12.190;2024-03-29T10:04:17;2.55;;;1.20;;
23676;SDS011;31493;49.058;12.190;2024-03-29T10:06:47;1.98;;;1.00;;
23676;SDS011;31493;49.058;12.190;2024-03-29T10:09:18;2.03;;;1.00;;
23676;SDS011;31493;49.058;12.190;2024-03-29T10:11:45;2.45;;;1.20;;
23676;SDS011;31493;49.058;12.190;2024-03-29T10:14:12;2.30;;;0.90;;
23676;SDS011;31493;49.058;12.190;2024-03-29T10:16:38;4.18;;;1.10;;
23676;SDS011;31493;49.058;12.190;2024-03-29T10:19:04;3.75;;;1.20;;
23676;SDS011;31493;49.058;12.190;2024-03-29T10:21:32;1.95;;;1.15;;
23676;SDS011;31493;49.058;12.190;2024-03-29T10:23:59;1.58;;;0.90;;
23676;SDS011;31493;49.058;12.190;2024-03-29T10:26:24;3.05;;;1.30;;
23676;SDS011;31493;49.058;12.190;2024-03-29T10:28:50;1.20;;;0.90;;
23676;SDS011;31493;49.058;12.190;2024-03-29T10:31:17;2.67;;;0.98;;
23676;SDS011;31493;49.058;12.190;2024-03-29T10:33:44;1.13;;;0.90;;
23676;SDS011;31493;49.058;12.190;2024-03-29T10:36:10;1.73;;;0.95;;
23676;SDS011;31493;49.058;12.190;2024-03-29T10:38:38;1.10;;;0.90;;
23676;SDS011;31493;49.058;12.190;2024-03-29T10:41:04;5.95;;;0.93;;
23676;SDS011;31493;49.058;12.190;2024-03-29T10:43:34;1.58;;;0.90;;
23676;SDS011;31493;49.058;12.190;2024-03-29T10:46:01;1.63;;;0.98;;
23676;SDS011;31493;49.058;12.190;2024-03-29T10:48:27;2.47;;;1.13;;
23676;SDS011;31493;49.058;12.190;2024-03-29T10:50:54;2.08;;;1.00;;
23676;SDS011;31493;49.058;12.190;2024-03-29T10:53:22;1.67;;;0.90;;
23676;SDS011;31493;49.058;12.190;2024-03-29T10:55:48;1.83;;;0.95;;
23676;SDS011;31493;49.058;12.190;2024-03-29T10:58:19;1.83;;;1.00;;
23676;SDS011;31493;49.058;12.190;2024-03-29T11:05:09;2.30;;;1.10;;
23676;SDS011;31493;49.058;12.190;2024-03-29T11:07:39;1.27;;;0.88;;
23676;SDS011;31493;49.058;12.190;2024-03-29T11:10:07;1.42;;;0.93;;
23676;SDS011;31493;49.058;12.190;2024-03-29T11:13:27;1.30;;;0.90;;
23676;SDS011;31493;49.058;12.190;2024-03-29T11:15:44;1.67;;;1.00;;
23676;SDS011;31493;49.058;12.190;2024-03-29T11:18:11;1.85;;;1.00;;
23676;SDS011;31493;49.058;12.190;2024-03-29T11:20:38;2.60;;;1.00;;
23676;SDS011;31493;49.058;12.190;2024-03-29T11:23:11;1.17;;;0.85;;
23676;SDS011;31493;49.058;12.190;2024-03-29T11:25:40;3.17;;;0.90;;
23676;SDS011;31493;49.058;12.190;2024-03-29T11:28:07;1.52;;;0.77;;
23676;SDS011;31493;49.058;12.190;2024-03-29T11:31:08;4.43;;;1.00;;
23676;SDS011;31493;49.058;12.190;2024-03-29T11:36:13;2.38;;;1.20;;
23676;SDS011;31493;49.058;12.190;2024-03-29T11:38:45;1.92;;;1.08;;
23676;SDS011;31493;49.058;12.190;2024-03-29T11:43:38;1.42;;;1.02;;
23676;SDS011;31493;49.058;12.190;2024-03-29T11:46:08;2.05;;;1.10;;
23676;SDS011;31493;49.058;12.190;2024-03-29T11:48:41;3.22;;;1.00;;
23676;SDS011;31493;49.058;12.190;2024-03-29T11:51:08;2.13;;;1.02;;
23676;SDS011;31493;49.058;12.190;2024-03-29T11:56:03;2.25;;;1.15;;
23676;SDS011;31493;49.058;12.190;2024-03-29T11:58:30;2.15;;;1.00;;
23676;SDS011;31493;49.058;12.190;2024-03-29T12:00:58;2.10;;;0.95;;
23676;SDS011;31493;49.058;12.190;2024-03-29T12:03:25;1.23;;;1.02;;
23676;SDS011;31493;49.058;12.190;2024-03-29T12:05:53;3.40;;;1.02;;
23676;SDS011;31493;49.058;12.190;2024-03-29T12:08:21;2.88;;;0.93;;
23676;SDS011;31493;49.058;12.190;2024-03-29T12:10:47;1.35;;;1.00;;
23676;SDS011;31493;49.058;12.190;2024-03-29T12:13:15;1.90;;;1.05;;
23676;SDS011;31493;49.058;12.190;2024-03-29T12:15:42;6.32;;;1.23;;
23676;SDS011;31493;49.058;12.190;2024-03-29T12:18:08;1.67;;;0.80;;
23676;SDS011;31493;49.058;12.190;2024-03-29T12:20:35;1.80;;;0.85;;
23676;SDS011;31493;49.058;12.190;2024-03-29T12:23:03;1.17;;;0.80;;
23676;SDS011;31493;49.058;12.190;2024-03-29T12:25:32;1.17;;;0.80;;
23676;SDS011;31493;49.058;12.190;2024-03-29T12:27:59;3.75;;;1.15;;
23676;SDS011;31493;49.058;12.190;2024-03-29T12:30:26;2.63;;;1.13;;
23676;SDS011;31493;49.058;12.190;2024-03-29T12:35:36;1.48;;;0.90;;
23676;SDS011;31493;49.058;12.190;2024-03-29T12:38:03;1.27;;;0.80;;
23676;SDS011;31493;49.058;12.190;2024-03-29T12:40:30;2.50;;;0.85;;
23676;SDS011;31493;49.058;12.190;2024-03-29T12:43:04;1.70;;;0.90;;
23676;SDS011;31493;49.058;12.190;2024-03-29T12:45:31;1.98;;;0.90;;
23676;SDS011;31493;49.058;12.190;2024-03-29T12:47:57;2.60;;;0.90;;
23676;SDS011;31493;49.058;12.190;2024-03-29T12:52:57;2.03;;;1.13;;
23676;SDS011;31493;49.058;12.190;2024-03-29T12:55:24;1.50;;;0.98;;
23676;SDS011;31493;49.058;12.190;2024-03-29T12:57:56;2.75;;;1.10;;
23676;SDS011;31493;49.058;12.190;2024-03-29T13:00:22;4.47;;;0.95;;
23676;SDS011;31493;49.058;12.190;2024-03-29T13:02:49;2.35;;;1.00;;
23676;SDS011;31493;49.058;12.190;2024-03-29T13:05:15;1.40;;;0.80;;
23676;SDS011;31493;49.058;12.190;2024-03-29T13:07:41;3.90;;;0.93;;
23676;SDS011;31493;49.058;12.190;2024-03-29T13:10:08;2.97;;;1.10;;
23676;SDS011;31493;49.058;12.190;2024-03-29T13:12:45;1.40;;;0.95;;
23676;SDS011;31493;49.058;12.190;2024-03-29T13:17:42;2.78;;;1.02;;
23676;SDS011;31493;49.058;12.190;2024-03-29T13:20:10;2.38;;;1.05;;
23676;SDS011;31493;49.058;12.190;2024-03-29T13:22:37;2.13;;;1.00;;
23676;SDS011;31493;49.058;12.190;2024-03-29T13:25:03;1.30;;;0.80;;
23676;SDS011;31493;49.058;12.190;2024-03-29T13:27:30;1.38;;;0.98;;
23676;SDS011;31493;49.058;12.190;2024-03-29T13:29:56;1.58;;;0.90;;
23676;SDS011;31493;49.058;12.190;2024-03-29T13:32:22;1.90;;;0.85;;
23676;SDS011;31493;49.058;12.190;2024-03-29T13:34:48;1.45;;;0.77;;
23676;SDS011;31493;49.058;12.190;2024-03-29T13:37:14;1.65;;;0.80;;
23676;SDS011;31493;49.058;12.190;2024-03-29T13:39:40;2.17;;;0.88;;
23676;SDS011;31493;49.058;12.190;2024-03-29T13:42:06;1.60;;;1.08;;
23676;SDS011;31493;49.058;12.190;2024-03-29T13:44:32;2.10;;;0.98;;
23676;SDS011;31493;49.058;12.190;2024-03-29T13:46:59;2.40;;;1.02;;
23676;SDS011;31493;49.058;12.190;2024-03-29T13:49:29;1.63;;;0.90;;
23676;SDS011;31493;49.058;12.190;2024-03-29T13:51:56;1.83;;;1.00;;
23676;SDS011;31493;49.058;12.190;2024-03-29T13:54:23;1.20;;;0.80;;
23676;SDS011;31493;49.058;12.190;2024-03-29T13:56:49;1.42;;;0.80;;
23676;SDS011;31493;49.058;12.190;2024-03-29T13:59:15;1.38;;;0.90;;
23676;SDS011;31493;49.058;12.190;2024-03-29T14:01:41;3.28;;;0.80;;
23676;SDS011;31493;49.058;12.190;2024-03-29T14:04:07;2.67;;;0.85;;
23676;SDS011;31493;49.058;12.190;2024-03-29T14:06:33;3.78;;;0.85;;
23676;SDS011;31493;49.058;12.190;2024-03-29T14:08:59;1.30;;;0.80;;
23676;SDS011;31493;49.058;12.190;2024-03-29T14:11:25;1.70;;;0.82;;
23676;SDS011;31493;49.058;12.190;2024-03-29T14:13:50;3.20;;;0.90;;
23676;SDS011;31493;49.058;12.190;2024-03-29T14:16:22;1.70;;;0.75;;
23676;SDS011;31493;49.058;12.190;2024-03-29T14:18:48;1.45;;;0.93;;
23676;SDS011;31493;49.058;12.190;2024-03-29T14:21:14;2.05;;;0.80;;
23676;SDS011;31493;49.058;12.190;2024-03-29T14:23:40;2.67;;;1.10;;
23676;SDS011;31493;49.058;12.190;2024-03-29T14:26:06;1.45;;;0.85;;
23676;SDS011;31493;49.058;12.190;2024-03-29T14:28:32;1.25;;;0.80;;
23676;SDS011;31493;49.058;12.190;2024-03-29T14:30:58;1.52;;;0.77;;
23676;SDS011;31493;49.058;12.190;2024-03-29T14:33:23;4.78;;;1.05;;
23676;SDS011;31493;49.058;12.190;2024-03-29T14:35:49;2.20;;;0.80;;
23676;SDS011;31493;49.058;12.190;2024-03-29T14:38:15;2.05;;;0.90;;
23676;SDS011;31493;49.058;12.190;2024-03-29T14:40:41;2.85;;;1.00;;
23676;SDS011;31493;49.058;12.190;2024-03-29T14:43:07;2.10;;;0.80;;
23676;SDS011;31493;49.058;12.190;2024-03-29T14:45:33;2.42;;;0.90;;
23676;SDS011;31493;49.058;12.190;2024-03-29T14:47:59;1.30;;;0.65;;
23676;SDS011;31493;49.058;12.190;2024-03-29T14:50:25;1.20;;;0.70;;
23676;SDS011;31493;49.058;12.190;2024-03-29T14:52:51;1.25;;;0.70;;
23676;SDS011;31493;49.058;12.190;2024-03-29T14:55:17;0.90;;;0.70;;
23676;SDS011;31493;49.058;12.190;2024-03-29T14:57:43;3.00;;;0.68;;
23676;SDS011;31493;49.058;12.190;2024-03-29T15:00:10;1.63;;;0.80;;
23676;SDS011;31493;49.058;12.190;2024-03-29T15:02:36;3.30;;;0.82;;
23676;SDS011;31493;49.058;12.190;2024-03-29T15:05:02;3.17;;;0.90;;